Margrethe Maersk — OZBY2 — position and weather

sailwx.info

Track history (hours):
 
Tides and Currents Weather Stations Pressure Air Temp Water Temp Dewpoint Dewpoint Depression Visibility Wind Speed Wind Dir Waves Ship Positions

Margrethe Maersk

Last reported at 2017-Dec-03 17:43 UTC. Time now 2017-Dec-17 12:06 UTC.
Position N 41°24' E 139°12'.
Warning: this ship's position is 13 days out of date.

Length 367 m; draft 12.9 m.

Type: Ship (hazmat cat A). MMSI: 220593000.

Date/timePositionNaut miles runAvg speedWind from/ knotsBaromVisibWave heightAir tempDewpointWater temp
2017-Dec-03 17:43N 41°24' E 139°12'521.7
2017-Dec-03 17:30N 41°22' E 139°18'1120.9
2017-Dec-03 16:59N 41°19' E 139°32'4318.2
2017-Dec-03 14:39N 41°28' E 140°27'320.8
2017-Dec-03 14:30N 41°29' E 140°30'919.0
2017-Dec-03 14:00N 41°33' E 140°42'918.4
2017-Dec-03 13:30N 41°37' E 140°53'918.3
2017-Dec-03 13:00N 41°39' E 141°05'1120.6
2017-Dec-03 12:29N 41°40' E 141°19'  
Track history (hours):
 
Tides and Currents Weather Stations Pressure Air Temp Water Temp Dewpoint Dewpoint Depression Visibility Wind Speed Wind Dir Waves Ship Positions

Margrethe Maersk

Last reported at 2017-Dec-03 17:43 UTC. Time now 2017-Dec-17 12:06 UTC.
Position N 41°24' E 139°12'.
Warning: this ship's position is 13 days out of date.

Length 367 m; draft 12.9 m.

Type: Ship (hazmat cat A). MMSI: 220593000.

Date/timePositionNaut miles runAvg speedWind from/ knotsBaromVisibWave heightAir tempDewpointWater temp
2017-Dec-03 17:43N 41°24' E 139°12'521.7
2017-Dec-03 17:30N 41°22' E 139°18'1120.9
2017-Dec-03 16:59N 41°19' E 139°32'4318.2
2017-Dec-03 14:39N 41°28' E 140°27'320.8
2017-Dec-03 14:30N 41°29' E 140°30'919.0
2017-Dec-03 14:00N 41°33' E 140°42'918.4
2017-Dec-03 13:30N 41°37' E 140°53'918.3
2017-Dec-03 13:00N 41°39' E 141°05'1120.6
2017-Dec-03 12:29N 41°40' E 141°19'  

Dump ship's entire track history